Search for airport 
image banner adimage banner ad
image banner ad

SV110 - Heliplataforma Ps3

Located in Peninsula De Paraguana, Venezuela

ICAO - , IATA -

Data provided by Airmate  

General information

Coordinates: N11°57'37" W70°32'16"
Elevation is feet MSL.
 
Rated:
View ratings: [VIEW]


View others Airports in Apure

Operational data

Open for public use
Current time UTC:
Current local time:
TAF: TAF SVJC 031600Z 0312/0412 07009KT 9999 FEW013 TX34/19Z TN24/09Z BECMG 0315/0319 09012KT SCT013 TEMPO 0320/0323 08015KT SCT013 SCT100
View NOTAMs / SUP AIP / TFR affecting this airport [VIEW]
Communications frequencies: [VIEW]

Runways:

Airport contact information

Address: Peninsula De Paraguana Venezuela

Satellite view of SV110